Time;durP1;ratioP1;P1;durP2;ratioP2;P2;SDS_P1;SDS_P2;PMS_P1;PMS_P2;Temp;Humidity;BMP_temperature;BMP_pressure;BME280_temperature;BME280_humidity;BME280_pressure;Samples;Min_cycle;Max_cycle;Signal;HPM_P1;HPM_P2
2022/07/15 00:04:26;;;;;;;4.47;2.50;;;;;;;;;;10385295;28;20057;-82
2022/07/15 00:14:48;;;;;;;5.18;2.55;;;;;;;;;;10371817;28;20049;-81
2022/07/15 00:19:50;;;;;;;2.63;2.22;;;;;;;;;;10370384;28;20077;-80
2022/07/15 00:24:50;;;;;;;3.80;2.35;;;;;;;;;;10361137;28;20120;-82
2022/07/15 00:29:50;;;;;;;4.03;2.38;;;;;;;;;;10366422;28;20126;-82
2022/07/15 00:34:51;;;;;;;5.55;2.50;;;;;;;;;;10395094;28;20030;-83
2022/07/15 00:39:54;;;;;;;5.43;2.47;;;;;;;;;;10400765;28;20030;-85
2022/07/15 00:44:56;;;;;;;3.83;2.90;;;;;;;;;;10413477;28;20029;-81
2022/07/15 00:49:57;;;;;;;6.03;2.97;;;;;;;;;;10393384;28;20037;-84
2022/07/15 00:55:02;;;;;;;2.97;2.35;;;;;;;;;;10407090;28;20106;-83
2022/07/15 01:00:04;;;;;;;3.47;2.30;;;;;;;;;;10414832;28;20072;-83
2022/07/15 01:05:10;;;;;;;;;;;;;;;;;;10396921;28;20038;-82
2022/07/15 01:10:10;;;;;;;3.85;2.33;;;;;;;;;;10392610;28;20004;-84
2022/07/15 01:15:12;;;;;;;4.72;2.90;;;;;;;;;;10403529;28;20053;-82
2022/07/15 01:20:14;;;;;;;3.22;2.33;;;;;;;;;;10384332;28;20336;-84
2022/07/15 01:25:48;;;;;;;2.65;2.40;;;;;;;;;;10380057;28;20488;-81
2022/07/15 01:30:50;;;;;;;2.42;2.22;;;;;;;;;;10371623;28;20072;-81
2022/07/15 01:35:53;;;;;;;3.20;2.13;;;;;;;;;;10334545;28;20048;-82
2022/07/15 01:40:54;;;;;;;2.67;2.00;;;;;;;;;;10351525;28;20049;-81
2022/07/15 01:45:55;;;;;;;4.07;2.42;;;;;;;;;;10373931;28;20034;-83
2022/07/15 01:51:09;;;;;;;2.65;2.38;;;;;;;;;;10388851;28;20068;-83
2022/07/15 01:56:14;;;;;;;4.85;3.13;;;;;;;;;;10391250;28;20045;-82
2022/07/15 02:01:17;;;;;;;3.05;2.50;;;;;;;;;;10395729;28;20041;-83
2022/07/15 02:06:20;;;;;;;4.57;2.45;;;;;;;;;;10396938;28;20034;-84
2022/07/15 02:11:40;;;;;;;4.80;3.00;;;;;;;;;;10409293;28;20042;-85
2022/07/15 02:16:45;;;;;;;4.80;2.92;;;;;;;;;;10410459;28;20045;-85
2022/07/15 02:21:54;;;;;;;4.03;2.63;;;;;;;;;;10403457;28;20042;-84
2022/07/15 02:26:59;;;;;;;4.97;2.90;;;;;;;;;;10422719;28;20030;-84
2022/07/15 02:32:07;;;;;;;6.43;3.10;;;;;;;;;;10413447;28;20073;-84
2022/07/15 02:37:07;;;;;;;4.53;3.58;;;;;;;;;;10406982;28;20042;-86
2022/07/15 02:42:14;;;;;;;5.63;3.47;;;;;;;;;;10374894;28;20068;-86
2022/07/15 02:47:17;;;;;;;5.78;3.70;;;;;;;;;;10384920;28;20052;-87
2022/07/15 02:52:36;;;;;;;4.30;3.50;;;;;;;;;;10374889;28;20041;-84
2022/07/15 02:57:38;;;;;;;4.68;3.60;;;;;;;;;;10413763;28;20060;-84
2022/07/15 03:02:49;;;;;;;6.15;4.38;;;;;;;;;;10403287;28;20053;-83
2022/07/15 03:07:53;;;;;;;4.93;3.58;;;;;;;;;;10376486;28;20057;-86
2022/07/15 03:12:57;;;;;;;4.45;3.67;;;;;;;;;;10395701;28;20069;-83
2022/07/15 03:18:03;;;;;;;4.75;3.83;;;;;;;;;;10413031;28;20033;-82
2022/07/15 03:23:03;;;;;;;5.60;4.18;;;;;;;;;;10404986;28;20069;-83
2022/07/15 03:28:09;;;;;;;5.25;4.13;;;;;;;;;;10349039;28;20049;-85
2022/07/15 03:38:43;;;;;;;5.65;4.20;;;;;;;;;;10390522;28;20061;-86
2022/07/15 03:44:01;;;;;;;5.68;4.05;;;;;;;;;;10415282;28;20050;-82
2022/07/15 03:49:04;;;;;;;6.00;4.20;;;;;;;;;;10414847;28;20056;-82
2022/07/15 03:54:08;;;;;;;5.60;4.00;;;;;;;;;;10397989;28;20124;-83
2022/07/15 03:59:10;;;;;;;4.72;3.92;;;;;;;;;;10401792;28;20084;-82
2022/07/15 04:04:15;;;;;;;5.38;3.95;;;;;;;;;;10418681;28;20138;-85
2022/07/15 04:09:23;;;;;;;7.47;4.03;;;;;;;;;;10399205;28;20038;-82
2022/07/15 04:14:25;;;;;;;5.47;4.20;;;;;;;;;;10375469;28;20602;-82
2022/07/15 04:19:26;;;;;;;5.28;3.90;;;;;;;;;;10402796;28;20073;-85
2022/07/15 04:24:33;;;;;;;6.70;4.03;;;;;;;;;;10391937;28;20049;-84
2022/07/15 04:29:35;;;;;;;5.73;4.57;;;;;;;;;;10403575;28;20053;-84
2022/07/15 04:34:40;;;;;;;11.15;7.40;;;;;;;;;;10392092;28;20072;-74
2022/07/15 04:39:41;;;;;;;6.40;4.25;;;;;;;;;;10374465;28;20073;-73
2022/07/15 04:44:42;;;;;;;5.15;4.47;;;;;;;;;;10359592;28;20045;-74
2022/07/15 04:55:07;;;;;;;4.35;3.95;;;;;;;;;;10357459;28;20050;-73
2022/07/15 05:00:10;;;;;;;10.57;4.32;;;;;;;;;;10360253;28;20054;-75
2022/07/15 05:05:13;;;;;;;8.07;4.70;;;;;;;;;;10356471;28;20157;-74
2022/07/15 05:10:13;;;;;;;4.85;3.70;;;;;;;;;;10362787;28;20053;-75
2022/07/15 05:15:20;;;;;;;4.55;3.60;;;;;;;;;;10357053;28;20049;-75
2022/07/15 05:20:22;;;;;;;5.97;3.72;;;;;;;;;;10335958;28;20467;-73
2022/07/15 05:25:24;;;;;;;5.22;3.72;;;;;;;;;;10372324;28;20054;-76
2022/07/15 05:30:24;;;;;;;4.35;3.20;;;;;;;;;;10358959;28;20057;-74
2022/07/15 05:35:30;;;;;;;5.20;3.80;;;;;;;;;;10375247;28;20050;-74
2022/07/15 05:40:30;;;;;;;4.47;3.60;;;;;;;;;;10357677;28;20054;-75
2022/07/15 05:45:31;;;;;;;5.57;3.75;;;;;;;;;;10372840;28;20046;-71
2022/07/15 05:50:37;;;;;;;4.70;3.25;;;;;;;;;;10330473;28;20076;-74
2022/07/15 05:55:38;;;;;;;6.47;3.75;;;;;;;;;;10354842;28;20128;-72
2022/07/15 06:00:39;;;;;;;3.97;3.40;;;;;;;;;;10349949;28;20042;-73
2022/07/15 06:05:40;;;;;;;4.75;3.45;;;;;;;;;;10355225;28;20045;-73
2022/07/15 06:10:41;;;;;;;5.40;3.45;;;;;;;;;;10334604;28;20045;-71
2022/07/15 06:15:41;;;;;;;5.45;3.28;;;;;;;;;;10352026;28;20130;-71
2022/07/15 06:20:46;;;;;;;4.22;3.35;;;;;;;;;;10372409;28;20136;-72
2022/07/15 06:25:47;;;;;;;5.68;3.50;;;;;;;;;;10355771;28;20157;-74
2022/07/15 06:30:47;;;;;;;6.50;4.03;;;;;;;;;;10359305;28;20054;-73
2022/07/15 06:35:48;;;;;;;4.13;3.17;;;;;;;;;;10358014;28;20050;-73
2022/07/15 06:40:49;;;;;;;4.60;3.45;;;;;;;;;;10375192;28;20285;-72
2022/07/15 06:45:49;;;;;;;4.53;3.75;;;;;;;;;;10355044;28;20050;-72
2022/07/15 06:50:51;;;;;;;4.15;3.25;;;;;;;;;;10354458;28;20095;-74
2022/07/15 06:55:52;;;;;;;5.20;3.05;;;;;;;;;;10371281;28;20455;-73
2022/07/15 07:00:52;;;;;;;7.10;3.80;;;;;;;;;;10370258;28;20388;-72
2022/07/15 07:05:53;;;;;;;8.63;4.18;;;;;;;;;;10353978;28;20044;-73
2022/07/15 07:10:53;;;;;;;6.47;4.00;;;;;;;;;;10376760;28;20089;-73
2022/07/15 07:15:54;;;;;;;5.50;3.87;;;;;;;;;;10363062;28;20083;-73
2022/07/15 07:20:56;;;;;;;5.30;3.65;;;;;;;;;;10363487;28;20080;-74
2022/07/15 07:25:57;;;;;;;6.13;3.75;;;;;;;;;;10363408;28;20061;-73
2022/07/15 07:30:58;;;;;;;5.35;3.53;;;;;;;;;;10356516;28;20073;-74
2022/07/15 07:35:59;;;;;;;4.18;3.22;;;;;;;;;;10365677;28;20859;-73
2022/07/15 07:41:00;;;;;;;7.40;3.80;;;;;;;;;;10360365;28;20046;-72
2022/07/15 07:46:01;;;;;;;4.63;3.50;;;;;;;;;;10362481;28;20045;-76
2022/07/15 07:51:01;;;;;;;5.13;3.90;;;;;;;;;;10361257;28;20062;-73
2022/07/15 07:56:02;;;;;;;5.05;3.10;;;;;;;;;;10363116;28;20419;-73
2022/07/15 08:01:03;;;;;;;5.60;3.00;;;;;;;;;;10361958;28;20508;-74
2022/07/15 08:06:03;;;;;;;4.30;2.67;;;;;;;;;;10361455;28;20050;-72
2022/07/15 08:11:03;;;;;;;6.03;2.85;;;;;;;;;;10350276;28;20072;-73
2022/07/15 08:16:04;;;;;;;6.72;3.17;;;;;;;;;;10358244;28;20497;-73
2022/07/15 08:21:04;;;;;;;4.20;2.75;;;;;;;;;;10362995;28;20046;-73
2022/07/15 08:26:05;;;;;;;3.65;2.42;;;;;;;;;;10363052;28;20109;-76
2022/07/15 08:31:06;;;;;;;3.10;2.60;;;;;;;;;;10369191;28;20074;-73
2022/07/15 08:36:06;;;;;;;3.63;2.58;;;;;;;;;;10371475;28;20050;-72
2022/07/15 08:41:07;;;;;;;3.90;2.30;;;;;;;;;;10373682;28;20495;-74
2022/07/15 08:46:07;;;;;;;3.37;2.43;;;;;;;;;;10365856;28;20065;-74
2022/07/15 08:51:08;;;;;;;14.35;12.00;;;;;;;;;;10365077;28;20072;-74
2022/07/15 08:56:08;;;;;;;4.93;2.35;;;;;;;;;;10357803;28;20405;-74
2022/07/15 09:01:09;;;;;;;4.57;2.17;;;;;;;;;;10358812;28;20537;-75
2022/07/15 09:06:19;;;;;;;2.60;2.10;;;;;;;;;;10367032;28;20280;-73
2022/07/15 09:11:27;;;;;;;5.03;2.58;;;;;;;;;;10377658;28;20153;-73
2022/07/15 09:16:28;;;;;;;4.78;2.20;;;;;;;;;;10381574;28;20046;-73
2022/07/15 09:21:28;;;;;;;4.40;2.55;;;;;;;;;;10370542;28;20042;-72
2022/07/15 09:26:29;;;;;;;4.18;2.20;;;;;;;;;;10362307;28;21334;-74
2022/07/15 09:36:57;;;;;;;3.33;2.00;;;;;;;;;;10393107;28;20057;-75
2022/07/15 09:42:04;;;;;;;3.30;2.03;;;;;;;;;;10400283;28;20038;-75
2022/07/15 09:47:15;;;;;;;3.42;2.00;;;;;;;;;;10383329;28;20041;-75
2022/07/15 09:52:15;;;;;;;4.57;2.92;;;;;;;;;;10371638;28;20073;-74
2022/07/15 09:57:17;;;;;;;3.38;2.25;;;;;;;;;;10371172;28;20140;-77
2022/07/15 10:02:17;;;;;;;2.22;1.98;;;;;;;;;;10368721;28;20046;-74
2022/07/15 10:07:19;;;;;;;4.40;2.07;;;;;;;;;;10360969;28;20133;-75
2022/07/15 10:12:22;;;;;;;3.45;2.25;;;;;;;;;;10371038;28;20830;-73
2022/07/15 10:17:26;;;;;;;3.38;2.30;;;;;;;;;;10361030;28;20060;-76
2022/07/15 10:22:42;;;;;;;4.22;1.90;;;;;;;;;;10360312;28;20086;-75
2022/07/15 10:27:52;;;;;;;4.20;2.67;;;;;;;;;;10361663;28;20177;-73
2022/07/15 10:33:13;;;;;;;3.45;2.58;;;;;;;;;;10366156;28;20050;-74
2022/07/15 10:38:20;;;;;;;3.17;2.35;;;;;;;;;;10362955;28;20045;-77
2022/07/15 10:43:36;;;;;;;3.80;1.90;;;;;;;;;;10365742;28;20042;-76
2022/07/15 10:48:36;;;;;;;3.80;2.00;;;;;;;;;;10365432;28;20042;-74
2022/07/15 10:53:44;;;;;;;3.75;2.40;;;;;;;;;;10363444;28;20058;-75
2022/07/15 10:59:03;;;;;;;3.40;2.28;;;;;;;;;;10363265;28;20049;-74
2022/07/15 11:04:10;;;;;;;2.63;2.38;;;;;;;;;;10363011;28;20823;-73
2022/07/15 11:09:10;;;;;;;3.22;2.17;;;;;;;;;;10377170;28;20149;-76
2022/07/15 11:14:30;;;;;;;3.63;2.27;;;;;;;;;;10367270;28;20448;-76
2022/07/15 11:19:31;;;;;;;4.38;2.20;;;;;;;;;;10364185;28;20058;-74
2022/07/15 11:24:36;;;;;;;2.40;2.20;;;;;;;;;;10369469;28;20033;-84
2022/07/15 11:29:47;;;;;;;3.75;2.17;;;;;;;;;;10407747;28;20061;-83
2022/07/15 11:34:51;;;;;;;3.40;2.08;;;;;;;;;;10372828;28;20704;-83
2022/07/15 11:40:06;;;;;;;3.17;2.50;;;;;;;;;;10421492;28;20052;-86
2022/07/15 11:45:33;;;;;;;2.17;1.75;;;;;;;;;;10356355;28;20408;-84
2022/07/15 11:50:58;;;;;;;3.53;2.10;;;;;;;;;;10357884;28;20463;-85
2022/07/15 11:56:08;;;;;;;3.63;3.20;;;;;;;;;;10411701;28;20045;-87
2022/07/15 12:01:09;;;;;;;3.75;2.20;;;;;;;;;;10420544;28;21152;-83
2022/07/15 12:06:11;;;;;;;;;;;;;;;;;;10388769;28;20053;-82
2022/07/15 12:11:25;;;;;;;2.40;2.03;;;;;;;;;;10385816;28;19921;-86
2022/07/15 12:16:34;;;;;;;3.08;2.25;;;;;;;;;;10406024;28;20045;-86
2022/07/15 12:21:40;;;;;;;3.13;2.20;;;;;;;;;;10410576;28;20026;-86
2022/07/15 12:26:55;;;;;;;2.33;1.90;;;;;;;;;;10391517;28;20042;-86
2022/07/15 12:31:59;;;;;;;2.17;1.77;;;;;;;;;;10401872;28;20061;-85
2022/07/15 12:37:02;;;;;;;2.28;2.08;;;;;;;;;;10388118;28;20104;-83
2022/07/15 12:42:07;;;;;;;3.97;2.20;;;;;;;;;;10404563;28;20034;-86
2022/07/15 12:47:09;;;;;;;4.03;2.20;;;;;;;;;;10398452;28;20038;-85
2022/07/15 12:52:10;;;;;;;;;;;;;;;;;;10393828;28;20046;-83
2022/07/15 12:57:28;;;;;;;3.35;2.58;;;;;;;;;;10390751;28;19917;-85
2022/07/15 13:02:28;;;;;;;2.03;1.83;;;;;;;;;;10417609;28;20065;-85
2022/07/15 13:07:29;;;;;;;2.45;2.03;;;;;;;;;;10362133;28;20350;-84
2022/07/15 13:12:33;;;;;;;2.80;2.10;;;;;;;;;;10361501;28;20054;-84
2022/07/15 13:17:38;;;;;;;2.92;1.90;;;;;;;;;;10407224;28;20207;-85
2022/07/15 13:22:38;;;;;;;2.95;2.40;;;;;;;;;;10365269;28;20050;-84
2022/07/15 13:27:44;;;;;;;2.38;1.98;;;;;;;;;;10402315;28;20038;-84
2022/07/15 13:32:48;;;;;;;2.17;1.88;;;;;;;;;;10433100;28;20044;-86
2022/07/15 13:37:49;;;;;;;4.15;2.42;;;;;;;;;;10422607;28;20081;-86
2022/07/15 13:42:58;;;;;;;4.28;2.53;;;;;;;;;;10415632;28;20060;-82
2022/07/15 13:48:03;;;;;;;2.72;2.30;;;;;;;;;;10367167;28;20053;-83
2022/07/15 13:53:16;;;;;;;2.90;1.95;;;;;;;;;;10366505;28;20080;-84
2022/07/15 13:58:35;;;;;;;1.98;1.88;;;;;;;;;;10377390;28;20069;-83
2022/07/15 14:03:42;;;;;;;4.00;2.40;;;;;;;;;;10389057;28;20105;-84
2022/07/15 14:08:45;;;;;;;2.03;1.88;;;;;;;;;;10385407;28;20128;-85
2022/07/15 14:13:46;;;;;;;;;;;;;;;;;;10393656;28;20050;-82
2022/07/15 14:18:52;;;;;;;3.95;1.83;;;;;;;;;;10378350;28;19953;-85
2022/07/15 14:23:55;;;;;;;3.60;2.50;;;;;;;;;;10358550;28;20102;-84
2022/07/15 14:28:57;;;;;;;3.05;1.92;;;;;;;;;;10352438;28;20052;-89
2022/07/15 14:33:57;;;;;;;3.30;2.28;;;;;;;;;;10405370;28;20056;-83
2022/07/15 14:38:58;;;;;;;3.70;2.08;;;;;;;;;;10400110;28;20041;-85
2022/07/15 14:44:02;;;;;;;2.70;2.00;;;;;;;;;;10388161;28;20068;-86
2022/07/15 14:49:07;;;;;;;3.72;2.47;;;;;;;;;;10360467;28;20519;-85
2022/07/15 14:54:11;;;;;;;2.78;2.20;;;;;;;;;;10392380;28;20114;-86
2022/07/15 14:59:19;;;;;;;2.85;2.00;;;;;;;;;;10415651;28;20054;-86
2022/07/15 15:04:29;;;;;;;2.92;2.20;;;;;;;;;;10394463;28;20040;-86
2022/07/15 15:09:29;;;;;;;3.25;1.95;;;;;;;;;;10386759;28;20045;-87
2022/07/15 15:14:31;;;;;;;;;;;;;;;;;;10400503;28;20045;-85
2022/07/15 15:19:32;;;;;;;2.57;2.00;;;;;;;;;;10376812;28;19928;-83
2022/07/15 15:24:34;;;;;;;2.93;2.10;;;;;;;;;;10379911;28;20050;-84
2022/07/15 15:29:46;;;;;;;;;;;;;;;;;;;;;
2022/07/15 15:34:47;;;;;;;2.67;2.10;;;;;;;;;;10415145;28;20053;-86
2022/07/15 15:39:50;;;;;;;3.17;2.20;;;;;;;;;;10404971;28;20057;-86
2022/07/15 15:45:08;;;;;;;2.03;1.75;;;;;;;;;;10421877;28;20052;-85
2022/07/15 15:50:10;;;;;;;2.67;2.05;;;;;;;;;;10370342;28;20081;-83
2022/07/15 15:55:18;;;;;;;2.75;2.10;;;;;;;;;;10421945;28;20133;-79
2022/07/15 16:00:18;;;;;;;3.05;2.20;;;;;;;;;;10371001;28;20153;-79
2022/07/15 16:05:21;;;;;;;3.33;2.23;;;;;;;;;;10400963;28;20049;-79
2022/07/15 16:10:26;;;;;;;3.22;2.28;;;;;;;;;;10393925;28;20298;-80
2022/07/15 16:15:28;;;;;;;3.90;2.30;;;;;;;;;;10393865;28;20173;-82
2022/07/15 16:20:37;;;;;;;3.70;2.45;;;;;;;;;;10395701;28;20415;-81
2022/07/15 16:25:38;;;;;;;5.05;2.42;;;;;;;;;;10375384;28;20042;-82
2022/07/15 16:30:40;;;;;;;6.03;5.35;;;;;;;;;;10384269;28;20148;-80
2022/07/15 16:35:42;;;;;;;4.83;2.10;;;;;;;;;;10381671;28;20663;-83
2022/07/15 16:40:43;;;;;;;4.60;2.33;;;;;;;;;;10392025;28;20038;-83
2022/07/15 16:45:45;;;;;;;8.88;7.60;;;;;;;;;;10405822;28;20491;-80
2022/07/15 16:50:45;;;;;;;3.08;1.98;;;;;;;;;;10370620;28;20064;-82
2022/07/15 16:55:50;;;;;;;3.63;2.10;;;;;;;;;;10413985;28;20038;-83
2022/07/15 17:00:51;;;;;;;3.38;2.22;;;;;;;;;;10385889;28;21100;-75
2022/07/15 17:05:51;;;;;;;4.67;2.40;;;;;;;;;;10376662;28;20046;-74
2022/07/15 17:10:58;;;;;;;2.60;2.40;;;;;;;;;;10377093;28;20839;-77
2022/07/15 17:15:58;;;;;;;2.60;2.13;;;;;;;;;;10385356;28;20392;-73
2022/07/15 17:20:59;;;;;;;7.00;2.78;;;;;;;;;;10370345;28;20050;-73
2022/07/15 17:25:59;;;;;;;8.37;3.33;;;;;;;;;;10366783;28;20053;-76
2022/07/15 17:31:01;;;;;;;3.90;3.00;;;;;;;;;;10371601;28;20289;-74
2022/07/15 17:36:01;;;;;;;3.30;2.30;;;;;;;;;;10376900;28;20050;-77
2022/07/15 17:41:03;;;;;;;3.40;2.80;;;;;;;;;;10382943;28;20050;-77
2022/07/15 17:46:04;;;;;;;3.25;2.63;;;;;;;;;;10386032;28;20049;-76
2022/07/15 17:51:07;;;;;;;4.68;2.53;;;;;;;;;;10364472;28;20428;-80
2022/07/15 17:56:08;;;;;;;5.82;2.72;;;;;;;;;;10382679;28;20529;-72
2022/07/15 18:01:09;;;;;;;2.83;2.40;;;;;;;;;;10358188;28;20110;-79
2022/07/15 18:06:11;;;;;;;2.50;2.20;;;;;;;;;;10370786;28;20042;-81
2022/07/15 18:11:15;;;;;;;5.50;2.47;;;;;;;;;;10389043;28;20034;-81
2022/07/15 18:16:20;;;;;;;3.95;2.45;;;;;;;;;;10384214;28;20102;-82
2022/07/15 18:21:26;;;;;;;2.47;2.10;;;;;;;;;;10356197;28;21325;-83
2022/07/15 18:26:27;;;;;;;4.90;3.05;;;;;;;;;;10351970;28;20334;-82
2022/07/15 18:31:30;;;;;;;3.57;2.20;;;;;;;;;;10382297;28;20053;-82
2022/07/15 18:36:32;;;;;;;2.97;2.40;;;;;;;;;;10399817;28;20291;-83
2022/07/15 18:41:41;;;;;;;4.38;2.70;;;;;;;;;;10376076;28;20426;-81
2022/07/15 18:46:44;;;;;;;3.90;2.70;;;;;;;;;;10397518;28;20077;-81
2022/07/15 18:51:50;;;;;;;3.67;2.40;;;;;;;;;;10383727;28;20049;-82
2022/07/15 18:56:54;;;;;;;5.00;2.50;;;;;;;;;;10386786;28;20057;-79
2022/07/15 19:01:57;;;;;;;2.85;2.38;;;;;;;;;;10399496;28;20139;-80
2022/07/15 19:06:58;;;;;;;3.27;2.40;;;;;;;;;;10390937;28;20050;-80
2022/07/15 19:12:05;;;;;;;4.47;2.65;;;;;;;;;;10389727;28;20265;-82
2022/07/15 19:17:10;;;;;;;3.47;2.33;;;;;;;;;;10398522;28;20085;-84
2022/07/15 19:22:20;;;;;;;3.17;2.20;;;;;;;;;;10390965;28;20050;-81
2022/07/15 19:27:21;;;;;;;3.50;2.40;;;;;;;;;;10404611;28;20379;-84
2022/07/15 19:32:22;;;;;;;2.60;2.40;;;;;;;;;;10409389;28;20061;-81
2022/07/15 19:37:22;;;;;;;6.85;5.53;;;;;;;;;;10413961;28;20022;-80
2022/07/15 19:42:23;;;;;;;4.82;2.97;;;;;;;;;;10404493;28;20046;-79
2022/07/15 19:47:23;;;;;;;3.20;2.50;;;;;;;;;;10375614;28;20121;-79
2022/07/15 19:52:24;;;;;;;4.20;2.70;;;;;;;;;;10376018;28;20064;-79
2022/07/15 19:57:24;;;;;;;3.90;2.90;;;;;;;;;;10402286;28;20268;-79
2022/07/15 20:02:25;;;;;;;4.88;2.58;;;;;;;;;;10404264;28;20093;-79
2022/07/15 20:07:30;;;;;;;4.38;2.95;;;;;;;;;;10405448;28;20057;-79
2022/07/15 20:12:31;;;;;;;3.70;2.60;;;;;;;;;;10389169;28;20373;-79
2022/07/15 20:17:32;;;;;;;5.43;2.83;;;;;;;;;;10370389;28;20049;-79
2022/07/15 20:22:32;;;;;;;3.35;2.63;;;;;;;;;;10362609;28;20336;-78
2022/07/15 20:27:33;;;;;;;3.78;2.70;;;;;;;;;;10367541;28;20488;-79
2022/07/15 20:32:37;;;;;;;4.55;2.40;;;;;;;;;;10380040;28;20050;-79
2022/07/15 20:37:42;;;;;;;3.03;2.60;;;;;;;;;;10366283;28;20097;-78
2022/07/15 20:42:42;;;;;;;3.40;2.47;;;;;;;;;;10382668;28;20045;-79
2022/07/15 20:47:43;;;;;;;3.40;2.63;;;;;;;;;;10419177;28;20170;-80
2022/07/15 20:52:47;;;;;;;3.05;2.65;;;;;;;;;;10358498;28;20113;-81
2022/07/15 20:58:01;;;;;;;;;;;;;;;;;;;;;
2022/07/15 21:03:05;;;;;;;4.38;2.80;;;;;;;;;;10367130;28;20191;-78
2022/07/15 21:08:13;;;;;;;4.28;2.90;;;;;;;;;;10370764;28;20045;-78
2022/07/15 21:13:13;;;;;;;5.25;2.97;;;;;;;;;;10360413;28;20061;-78
2022/07/15 21:18:19;;;;;;;3.97;2.90;;;;;;;;;;10335079;28;20074;-78
2022/07/15 21:23:43;;;;;;;3.50;3.00;;;;;;;;;;10365395;28;20054;-79
2022/07/15 21:28:43;;;;;;;4.00;3.22;;;;;;;;;;10343480;28;20148;-78
2022/07/15 21:33:46;;;;;;;3.40;2.97;;;;;;;;;;10354044;28;20054;-78
2022/07/15 21:38:57;;;;;;;3.88;3.17;;;;;;;;;;10333665;28;20053;-78
2022/07/15 21:44:05;;;;;;;5.85;2.90;;;;;;;;;;10359980;28;20117;-78
2022/07/15 21:49:13;;;;;;;4.18;3.10;;;;;;;;;;10362429;28;20057;-79
2022/07/15 21:54:14;;;;;;;4.07;3.03;;;;;;;;;;10386861;28;20423;-79
2022/07/15 21:59:15;;;;;;;3.75;3.30;;;;;;;;;;10375665;28;20050;-78
2022/07/15 22:04:15;;;;;;;3.83;3.42;;;;;;;;;;10386097;28;20044;-80
2022/07/15 22:09:16;;;;;;;3.03;2.72;;;;;;;;;;10376041;28;20127;-78
2022/07/15 22:14:16;;;;;;;3.50;3.10;;;;;;;;;;10379549;28;20522;-78
2022/07/15 22:19:17;;;;;;;5.85;3.03;;;;;;;;;;10372427;28;20281;-81
2022/07/15 22:24:18;;;;;;;3.10;2.80;;;;;;;;;;10379323;28;20128;-77
2022/07/15 22:29:18;;;;;;;3.70;2.90;;;;;;;;;;10382052;28;20049;-79
2022/07/15 22:34:18;;;;;;;4.40;3.03;;;;;;;;;;10379255;28;20370;-79
2022/07/15 22:39:19;;;;;;;3.47;2.90;;;;;;;;;;10380228;28;20113;-78
2022/07/15 22:44:22;;;;;;;3.50;2.80;;;;;;;;;;10397908;28;20330;-78
2022/07/15 22:49:23;;;;;;;3.47;2.80;;;;;;;;;;10396657;28;20064;-77
2022/07/15 22:54:24;;;;;;;3.80;3.00;;;;;;;;;;10405557;28;20167;-77
2022/07/15 22:59:26;;;;;;;3.45;3.15;;;;;;;;;;10401579;28;20054;-79
2022/07/15 23:04:30;;;;;;;4.85;3.20;;;;;;;;;;10376796;28;20052;-77
2022/07/15 23:09:33;;;;;;;4.75;3.05;;;;;;;;;;10383109;28;20049;-78
2022/07/15 23:14:36;;;;;;;4.30;3.20;;;;;;;;;;10387830;28;20050;-78
2022/07/15 23:19:37;;;;;;;6.73;3.57;;;;;;;;;;10383531;28;20264;-78
2022/07/15 23:24:49;;;;;;;;;;;;;;;;;;;;;
2022/07/15 23:29:58;;;;;;;6.38;4.05;;;;;;;;;;10375493;28;20109;-77
2022/07/15 23:35:01;;;;;;;4.30;3.67;;;;;;;;;;10378149;28;20077;-78
2022/07/15 23:40:05;;;;;;;;;;;;;;;;;;10378129;28;20050;-78
2022/07/15 23:45:20;;;;;;;5.95;3.63;;;;;;;;;;10370721;28;19918;-79
2022/07/15 23:50:21;;;;;;;4.15;3.75;;;;;;;;;;10382118;28;20050;-79
2022/07/15 23:55:21;;;;;;;4.50;3.90;;;;;;;;;;10390417;28;20088;-78
